createdAt,value
2022-07-28T00:00:50.605Z,5
2022-07-28T00:05:52.209Z,5
2022-07-28T00:10:53.841Z,6
2022-07-28T00:15:55.453Z,6
2022-07-28T00:20:57.090Z,5
2022-07-28T00:25:58.886Z,6
2022-07-28T00:31:05.114Z,6
2022-07-28T00:36:08.837Z,6
2022-07-28T00:41:13.419Z,6
2022-07-28T00:46:15.055Z,6
2022-07-28T00:51:16.757Z,6
2022-07-28T00:56:18.344Z,5
2022-07-28T01:01:20.236Z,4
2022-07-28T01:06:21.901Z,6
2022-07-28T01:11:23.543Z,7
2022-07-28T01:16:25.253Z,5
2022-07-28T01:21:27.016Z,6
2022-07-28T01:26:28.617Z,6
2022-07-28T01:31:30.333Z,7
2022-07-28T01:36:31.981Z,7
2022-07-28T01:41:33.582Z,6
2022-07-28T01:46:35.469Z,6
2022-07-28T01:51:37.112Z,6
2022-07-28T01:56:38.746Z,5
2022-07-28T02:01:40.435Z,6
2022-07-28T02:06:42.121Z,5
2022-07-28T02:11:43.719Z,6
2022-07-28T02:16:45.344Z,8
2022-07-28T02:21:46.957Z,8
2022-07-28T02:26:48.564Z,6
2022-07-28T02:31:50.210Z,6
2022-07-28T02:36:51.807Z,8
2022-07-28T02:41:53.441Z,7
2022-07-28T02:46:55.032Z,6
2022-07-28T02:51:56.871Z,6
2022-07-28T02:56:58.553Z,8
2022-07-28T03:02:00.269Z,7
2022-07-28T03:07:01.923Z,7
2022-07-28T03:12:03.480Z,7
2022-07-28T03:17:05.145Z,5
2022-07-28T03:22:06.806Z,6
2022-07-28T03:27:12.186Z,7
2022-07-28T03:32:13.798Z,6
2022-07-28T03:37:15.366Z,7
2022-07-28T03:42:16.983Z,6
2022-07-28T03:47:18.591Z,5
2022-07-28T03:52:20.160Z,7
2022-07-28T03:57:21.787Z,7
2022-07-28T04:02:23.424Z,6
2022-07-28T04:07:25.173Z,7
2022-07-28T04:12:26.823Z,5
2022-07-28T04:17:28.497Z,5
2022-07-28T04:22:30.111Z,6
2022-07-28T04:27:31.730Z,6
2022-07-28T04:32:33.342Z,6
2022-07-28T04:37:35.003Z,5
2022-07-28T04:42:36.613Z,5
2022-07-28T04:47:38.314Z,4
2022-07-28T04:52:39.922Z,6
2022-07-28T04:57:41.606Z,7
2022-07-28T05:02:43.279Z,7
2022-07-28T05:07:44.870Z,6
2022-07-28T05:12:46.480Z,5
2022-07-28T05:17:48.086Z,8
2022-07-28T05:22:49.663Z,5
2022-07-28T05:27:51.274Z,6
2022-07-28T05:32:52.879Z,7
2022-07-28T05:37:54.480Z,7
2022-07-28T05:42:56.066Z,6
2022-07-28T05:47:57.639Z,6
2022-07-28T05:52:59.262Z,5
2022-07-28T05:58:00.868Z,6
2022-07-28T06:03:02.470Z,5
2022-07-28T06:08:04.055Z,6
2022-07-28T06:13:05.689Z,7
2022-07-28T06:18:07.303Z,6
2022-07-28T06:23:08.877Z,5
2022-07-28T06:28:10.505Z,7
2022-07-28T06:33:17.004Z,8
2022-07-28T06:38:19.008Z,8
2022-07-28T06:43:21.342Z,7
2022-07-28T06:48:25.851Z,6
2022-07-28T06:53:33.801Z,6
2022-07-28T06:58:36.095Z,5
2022-07-28T07:03:37.728Z,6
2022-07-28T07:08:39.416Z,4
2022-07-28T07:13:41.056Z,5
2022-07-28T07:18:42.744Z,6
2022-07-28T07:23:44.455Z,6
2022-07-28T07:28:46.901Z,5
2022-07-28T07:33:48.473Z,5
2022-07-28T07:38:50.070Z,6
2022-07-28T07:43:51.719Z,4
2022-07-28T07:48:53.434Z,5
2022-07-28T07:53:55.293Z,5
2022-07-28T07:58:57.323Z,3
2022-07-28T08:03:59.071Z,3
2022-07-28T08:09:00.720Z,4
2022-07-28T08:14:02.334Z,2
2022-07-28T08:19:04.045Z,3
2022-07-28T08:24:07.789Z,3
2022-07-28T08:29:09.413Z,3
2022-07-28T08:34:26.484Z,5
2022-07-28T08:39:34.588Z,3
2022-07-28T08:44:36.204Z,3
2022-07-28T08:49:39.211Z,4
2022-07-28T08:54:41.925Z,2
2022-07-28T08:59:43.530Z,2
2022-07-28T09:04:45.477Z,3
2022-07-28T09:09:47.081Z,2
2022-07-28T09:14:48.660Z,2
2022-07-28T09:19:50.247Z,3
2022-07-28T09:24:51.867Z,2
2022-07-28T09:29:53.453Z,5
2022-07-28T09:34:55.053Z,4
2022-07-28T09:39:56.652Z,4
2022-07-28T09:45:21.190Z,3
2022-07-28T09:50:24.303Z,3
2022-07-28T09:55:25.911Z,2
2022-07-28T10:00:27.588Z,3
2022-07-28T10:05:29.510Z,4
2022-07-28T10:10:31.108Z,1
2022-07-28T10:15:32.841Z,3
2022-07-28T10:20:34.593Z,2
2022-07-28T10:25:36.267Z,2
2022-07-28T10:30:37.939Z,2
2022-07-28T10:35:48.553Z,1
2022-07-28T10:40:56.715Z,2
2022-07-28T10:46:05.771Z,3
2022-07-28T10:51:08.216Z,3
2022-07-28T10:56:09.871Z,1
2022-07-28T11:01:26.775Z,1
2022-07-28T11:06:48.058Z,4
2022-07-28T11:11:49.882Z,3
2022-07-28T11:16:51.543Z,3
2022-07-28T11:21:53.238Z,3
2022-07-28T11:26:54.874Z,3
2022-07-28T11:31:56.486Z,4
2022-07-28T11:36:58.120Z,4
2022-07-28T11:41:59.743Z,3
2022-07-28T11:47:01.678Z,4
2022-07-28T11:52:03.304Z,3
2022-07-28T11:57:05.447Z,4
2022-07-28T12:02:07.137Z,3
2022-07-28T12:07:08.767Z,4
2022-07-28T12:12:11.124Z,4
2022-07-28T12:17:12.821Z,4
2022-07-28T12:22:15.696Z,3
2022-07-28T12:27:17.592Z,3
2022-07-28T12:32:19.479Z,3
2022-07-28T12:37:21.230Z,4
2022-07-28T12:42:22.818Z,4
2022-07-28T12:47:24.412Z,3
2022-07-28T12:52:26.018Z,3
2022-07-28T12:57:27.630Z,3
2022-07-28T13:02:29.339Z,3
2022-07-28T13:07:30.968Z,3
2022-07-28T13:12:33.179Z,5
2022-07-28T13:17:34.794Z,4
2022-07-28T13:22:36.407Z,2
2022-07-28T13:27:38.048Z,6
2022-07-28T13:32:39.959Z,6
2022-07-28T13:37:43.664Z,2
2022-07-28T13:42:52.519Z,4
2022-07-28T13:47:58.918Z,4
2022-07-28T13:53:00.518Z,4
2022-07-28T13:58:08.220Z,4
2022-07-28T14:03:10.730Z,5
2022-07-28T14:08:13.210Z,4
2022-07-28T14:13:14.786Z,4
2022-07-28T14:18:16.378Z,3
2022-07-28T14:23:18.010Z,3
2022-07-28T14:28:19.616Z,3
2022-07-28T14:33:21.249Z,3
2022-07-28T14:38:52.301Z,3
2022-07-28T14:43:55.207Z,4
2022-07-28T14:48:57.098Z,4
2022-07-28T14:53:58.739Z,5
2022-07-28T14:59:00.513Z,3
2022-07-28T15:04:02.184Z,6
2022-07-28T15:09:03.765Z,5
2022-07-28T15:14:05.412Z,5
2022-07-28T15:19:07.060Z,7
2022-07-28T15:24:08.635Z,6
2022-07-28T15:29:10.372Z,5
2022-07-28T15:34:13.473Z,5
2022-07-28T15:39:15.265Z,7
2022-07-28T15:44:17.375Z,5
2022-07-28T15:49:27.671Z,6
2022-07-28T15:54:29.276Z,6
2022-07-28T15:59:49.958Z,5
2022-07-28T16:04:54.056Z,4
2022-07-28T16:09:56.105Z,5
2022-07-28T16:14:57.736Z,8
2022-07-28T16:20:02.393Z,7
2022-07-28T16:25:04.387Z,7
2022-07-28T16:30:06.161Z,6
2022-07-28T16:35:07.787Z,6
2022-07-28T16:40:09.430Z,6
2022-07-28T16:45:11.027Z,5
2022-07-28T16:50:12.618Z,5
2022-07-28T16:55:17.848Z,6
2022-07-28T17:00:21.916Z,5
2022-07-28T17:05:23.564Z,6
2022-07-28T17:10:27.456Z,5
2022-07-28T17:15:29.594Z,5
2022-07-28T17:20:31.196Z,6
2022-07-28T17:25:56.547Z,7
2022-07-28T17:31:10.793Z,7
2022-07-28T17:36:12.445Z,8
2022-07-28T17:41:14.095Z,5
2022-07-28T17:46:15.773Z,5
2022-07-28T17:51:17.397Z,6
2022-07-28T17:56:19.042Z,5
2022-07-28T18:01:22.878Z,7
2022-07-28T18:06:24.631Z,5
2022-07-28T18:11:26.283Z,5
2022-07-28T18:16:28.010Z,6
2022-07-28T18:21:29.717Z,4
2022-07-28T18:26:31.307Z,7
2022-07-28T18:31:32.950Z,8
2022-07-28T18:36:34.595Z,6
2022-07-28T18:41:46.850Z,7
2022-07-28T18:46:49.436Z,7
2022-07-28T18:51:51.140Z,6
2022-07-28T18:56:52.750Z,7
2022-07-28T19:01:54.548Z,6
2022-07-28T19:06:56.224Z,7
2022-07-28T19:11:57.863Z,5
2022-07-28T19:16:59.527Z,6
2022-07-28T19:22:01.485Z,6
2022-07-28T19:27:03.156Z,7
2022-07-28T19:32:04.793Z,7
2022-07-28T19:37:06.383Z,6
2022-07-28T19:42:08.024Z,8
2022-07-28T19:47:09.660Z,8
2022-07-28T19:52:11.275Z,7
2022-07-28T19:57:14.587Z,6
2022-07-28T20:02:17.094Z,5
2022-07-28T20:07:20.175Z,7
2022-07-28T20:12:21.817Z,5
2022-07-28T20:17:37.330Z,7
2022-07-28T20:22:40.179Z,7
2022-07-28T20:27:41.791Z,8
2022-07-28T20:32:43.448Z,9
2022-07-28T20:37:45.151Z,7
2022-07-28T20:42:52.591Z,5
2022-07-28T20:47:54.719Z,7
2022-07-28T20:52:56.357Z,6
2022-07-28T20:57:57.994Z,7
2022-07-28T21:02:59.779Z,6
2022-07-28T21:08:05.747Z,9
2022-07-28T21:13:08.235Z,6
2022-07-28T21:18:09.984Z,24
2022-07-28T21:23:11.604Z,42
2022-07-28T21:28:13.209Z,39
2022-07-28T21:33:23.096Z,37
2022-07-28T21:38:25.119Z,22
2022-07-28T21:43:26.749Z,31
2022-07-28T21:48:28.339Z,16
2022-07-28T21:53:30.058Z,30
2022-07-28T21:58:31.705Z,33
2022-07-28T22:03:33.323Z,26
2022-07-28T22:08:35.043Z,23
2022-07-28T22:13:36.905Z,7
2022-07-28T22:18:38.639Z,6
2022-07-28T22:23:42.335Z,7
2022-07-28T22:28:44.143Z,7
2022-07-28T22:33:45.907Z,5
2022-07-28T22:38:47.669Z,6
2022-07-28T22:43:50.200Z,7
2022-07-28T22:48:52.022Z,7
2022-07-28T22:53:53.961Z,6
2022-07-28T22:58:55.624Z,7
2022-07-28T23:03:58.093Z,5
2022-07-28T23:09:00.040Z,7
2022-07-28T23:14:01.697Z,7
2022-07-28T23:19:03.556Z,6
2022-07-28T23:24:05.266Z,6
2022-07-28T23:29:06.889Z,7
2022-07-28T23:34:08.471Z,6
2022-07-28T23:39:10.096Z,7
2022-07-28T23:44:11.967Z,8
2022-07-28T23:49:14.029Z,8
2022-07-28T23:54:16.094Z,8
2022-07-28T23:59:17.937Z,8
